Airport View

Enter AWOS ICAO identifier for current METAR.

ex. KFNL

KTCM 212258Z AUTO 26008KT 10SM BKN031 20/16 A3007 RMK AO2 SLP186 T02000158 $

21 Sep 2019 23:41

Other Area AWOS: KGRF - KPLU - KTIW - KSEA

TAF KTCM 212100Z 2121/2303 25009KT 9999 SCT020 BKN030 QNH3000INS BECMG 2206/2207 VRB06KT 9999 BKN020 OVC100 QNH2990INS BECMG 2211/2212 19009KT 8000 -RA OVC020 620909 QNH2985INS TEMPO 2212/2217 6000 BR BKN010 BECMG 2222/2223 24012KT 9999 NSW BKN015 QNH2987INS TX19/2123Z TN12/2213Z